Terminal Aerodrome Forecast
Issued by NWS

Home | Current Version | Previous Version | Text Only | Print | Product List | Glossary On
Versions: 1 2 3 4 5 6 7 8 9 10 11 12 13 14 15 16 17 18 19
000
FTUS43 KBIS 010200 AAA
TAFJMS
TAF AMD
KJMS 010205Z 0102/0124 18016KT P6SM VCSH BKN015 OVC030
     FM011100 22012KT P6SM BKN030
     FM011700 25015KT P6SM BKN050=

USA.gov is the U.S. government's official web portal to all federal, state and local government web resources and services.